createdAt,value
2022-10-26T00:00:49.999Z,1018.85
2022-10-26T00:02:50.278Z,1018.73
2022-10-26T00:04:50.017Z,1018.72
2022-10-26T00:06:50.019Z,1018.72
2022-10-26T00:08:50.008Z,1018.61
2022-10-26T00:10:50.095Z,1018.53
2022-10-26T00:12:50.434Z,1018.46
2022-10-26T00:14:49.992Z,1018.47
2022-10-26T00:16:50.027Z,1018.47
2022-10-26T00:18:50.082Z,1018.47
2022-10-26T00:20:50.026Z,1018.59
2022-10-26T00:22:50.084Z,1018.60
2022-10-26T00:24:50.030Z,1018.60
2022-10-26T00:26:49.989Z,1018.67
2022-10-26T00:28:50.009Z,1018.69
2022-10-26T00:30:50.001Z,1018.65
2022-10-26T00:32:50.076Z,1018.65
2022-10-26T00:34:50.091Z,1018.65
2022-10-26T00:36:50.020Z,1018.65
2022-10-26T00:38:50.071Z,1018.75
2022-10-26T00:40:50.133Z,1018.62
2022-10-26T00:42:50.317Z,1018.69
2022-10-26T00:44:50.046Z,1018.69
2022-10-26T00:46:50.029Z,1018.69
2022-10-26T00:48:50.026Z,1018.67
2022-10-26T00:50:50.035Z,1018.70
2022-10-26T00:52:50.323Z,1018.70
2022-10-26T00:54:50.063Z,1018.68
2022-10-26T00:56:50.071Z,1018.68
2022-10-26T00:58:50.181Z,1018.69
2022-10-26T01:00:50.050Z,1018.64
2022-10-26T01:02:50.209Z,1018.64
2022-10-26T01:04:50.146Z,1018.62
2022-10-26T01:06:50.051Z,1018.61
2022-10-26T01:08:50.045Z,1018.61
2022-10-26T01:10:50.034Z,1018.63
2022-10-26T01:12:50.129Z,1018.63
2022-10-26T01:14:50.089Z,1018.62
2022-10-26T01:16:50.107Z,1018.62
2022-10-26T01:18:50.147Z,1018.55
2022-10-26T01:20:50.033Z,1018.55
2022-10-26T01:22:50.091Z,1018.55
2022-10-26T01:24:50.084Z,1018.54
2022-10-26T01:26:50.033Z,1018.50
2022-10-26T01:28:50.048Z,1018.43
2022-10-26T01:30:50.050Z,1018.43
2022-10-26T01:32:50.145Z,1018.47
2022-10-26T01:34:50.061Z,1018.47
2022-10-26T01:36:50.048Z,1018.51
2022-10-26T01:38:50.066Z,1018.56
2022-10-26T01:40:50.108Z,1018.56
2022-10-26T01:42:50.079Z,1018.59
2022-10-26T01:44:50.129Z,1018.59
2022-10-26T01:46:50.071Z,1018.59
2022-10-26T01:48:50.067Z,1018.55
2022-10-26T01:50:50.176Z,1018.55
2022-10-26T01:52:50.065Z,1018.49
2022-10-26T01:54:50.081Z,1018.46
2022-10-26T01:57:20.151Z,1018.46
2022-10-26T01:59:20.086Z,1018.40
2022-10-26T02:01:20.131Z,1018.39
2022-10-26T02:03:20.165Z,1018.39
2022-10-26T02:05:20.108Z,1018.35
2022-10-26T02:07:20.055Z,1018.30
2022-10-26T02:09:20.079Z,1018.28
2022-10-26T02:11:20.095Z,1018.27
2022-10-26T02:13:20.129Z,1018.27
2022-10-26T02:15:20.076Z,1018.24
2022-10-26T02:17:20.064Z,1018.26
2022-10-26T02:19:20.081Z,1018.20
2022-10-26T02:21:20.256Z,1018.20
2022-10-26T02:23:20.089Z,1018.14
2022-10-26T02:25:20.110Z,1018.07
2022-10-26T02:27:20.156Z,1018.07
2022-10-26T02:29:20.151Z,1018.06
2022-10-26T02:31:20.090Z,1018.06
2022-10-26T02:33:20.109Z,1018.08
2022-10-26T02:35:20.103Z,1018.11
2022-10-26T02:37:20.085Z,1018.11
2022-10-26T02:39:20.097Z,1018.09
2022-10-26T02:41:20.150Z,1018.09
2022-10-26T02:43:20.223Z,1018.09
2022-10-26T02:45:20.162Z,1018.09
2022-10-26T02:47:20.089Z,1017.96
2022-10-26T02:49:20.101Z,1017.93
2022-10-26T02:51:20.108Z,1017.93
2022-10-26T02:53:20.142Z,1017.95
2022-10-26T02:55:20.102Z,1017.92
2022-10-26T02:57:20.156Z,1017.92
2022-10-26T02:59:20.152Z,1017.92
2022-10-26T03:01:20.166Z,1017.95
2022-10-26T03:03:20.122Z,1017.96
2022-10-26T03:05:20.116Z,1018.09
2022-10-26T03:07:20.153Z,1018.11
2022-10-26T03:09:22.205Z,1018.11
2022-10-26T03:11:20.115Z,1018.11
2022-10-26T03:13:20.150Z,1018.19
2022-10-26T03:15:20.160Z,1018.20
2022-10-26T03:17:20.151Z,1018.20
2022-10-26T03:19:20.133Z,1018.20
2022-10-26T03:21:20.105Z,1018.26
2022-10-26T03:23:20.154Z,1018.29
2022-10-26T03:25:20.133Z,1018.33
2022-10-26T03:27:27.688Z,1018.33
2022-10-26T03:29:20.171Z,1018.34
2022-10-26T03:31:20.155Z,1018.36
2022-10-26T03:33:22.360Z,1018.42
2022-10-26T03:35:20.148Z,1018.47
2022-10-26T03:37:20.181Z,1018.47
2022-10-26T03:39:20.208Z,1018.52
2022-10-26T03:41:20.132Z,1018.56
2022-10-26T03:43:20.166Z,1018.56
2022-10-26T03:45:20.234Z,1018.58
2022-10-26T03:47:20.124Z,1018.58
2022-10-26T03:49:20.196Z,1018.65
2022-10-26T03:51:20.193Z,1018.63
2022-10-26T03:53:20.257Z,1018.67
2022-10-26T03:55:50.147Z,1018.67
2022-10-26T03:57:50.164Z,1018.67
2022-10-26T03:59:50.205Z,1018.67
2022-10-26T04:01:52.794Z,1018.66
2022-10-26T04:03:50.257Z,1018.70
2022-10-26T04:05:50.189Z,1018.70
2022-10-26T04:07:50.466Z,1018.70
2022-10-26T04:09:50.294Z,1018.74
2022-10-26T04:11:50.203Z,1018.76
2022-10-26T04:13:50.221Z,1018.79
2022-10-26T04:15:51.416Z,1018.79
2022-10-26T04:17:50.532Z,1018.83
2022-10-26T04:19:50.194Z,1018.87
2022-10-26T04:21:50.322Z,1018.80
2022-10-26T04:23:50.220Z,1018.80
2022-10-26T04:25:50.162Z,1018.84
2022-10-26T04:27:50.536Z,1018.98
2022-10-26T04:29:50.187Z,1019.07
2022-10-26T04:31:50.166Z,1019.00
2022-10-26T04:33:50.175Z,1019.00
2022-10-26T04:35:50.193Z,1018.92
2022-10-26T04:37:50.393Z,1018.93
2022-10-26T04:39:50.290Z,1018.93
2022-10-26T04:41:50.206Z,1018.84
2022-10-26T04:43:50.253Z,1018.84
2022-10-26T04:45:50.261Z,1018.82
2022-10-26T04:47:50.275Z,1018.81
2022-10-26T04:49:50.244Z,1018.74
2022-10-26T04:51:50.371Z,1018.72
2022-10-26T04:53:50.298Z,1018.72
2022-10-26T04:55:50.221Z,1018.68
2022-10-26T04:57:50.658Z,1018.62
2022-10-26T04:59:51.280Z,1018.52
2022-10-26T05:01:50.431Z,1018.52
2022-10-26T05:03:50.302Z,1018.29
2022-10-26T05:05:50.329Z,1018.24
2022-10-26T05:07:50.559Z,1018.43
2022-10-26T05:09:50.258Z,1018.40
2022-10-26T05:11:50.259Z,1018.40
2022-10-26T05:13:50.312Z,1018.33
2022-10-26T05:15:50.251Z,1018.27
2022-10-26T05:19:50.290Z,1018.55
2022-10-26T05:21:50.201Z,1018.55
2022-10-26T05:23:50.184Z,1018.68
2022-10-26T05:25:50.226Z,1018.74
2022-10-26T05:27:50.257Z,1018.81
2022-10-26T05:29:50.308Z,1018.81
2022-10-26T05:33:57.068Z,1018.84
2022-10-26T05:35:57.049Z,1018.77
2022-10-26T05:37:57.094Z,1018.79
2022-10-26T05:39:57.073Z,1018.79
2022-10-26T05:41:57.063Z,1018.90
2022-10-26T05:43:57.148Z,1018.91
2022-10-26T05:45:57.014Z,1018.94
2022-10-26T05:47:59.989Z,1018.99
2022-10-26T05:49:57.031Z,1018.99
2022-10-26T05:51:56.988Z,1018.93
2022-10-26T05:53:57.105Z,1018.88
2022-10-26T05:55:57.010Z,1018.87
2022-10-26T05:57:57.108Z,1018.87
2022-10-26T05:59:57.112Z,1018.87
2022-10-26T06:01:57.162Z,1018.87
2022-10-26T06:03:57.034Z,1018.90
2022-10-26T06:05:57.028Z,1018.90
2022-10-26T06:07:57.058Z,1018.90
2022-10-26T06:09:57.139Z,1018.97
2022-10-26T06:11:57.060Z,1018.97
2022-10-26T06:13:57.148Z,1018.95
2022-10-26T06:15:57.013Z,1019.01
2022-10-26T06:18:27.116Z,1018.99
2022-10-26T06:20:27.060Z,1019.03
2022-10-26T06:22:27.107Z,1019.03
2022-10-26T06:24:27.050Z,1019.00
2022-10-26T06:26:27.043Z,1019.11
2022-10-26T06:28:27.090Z,1019.15
2022-10-26T06:30:27.102Z,1019.15
2022-10-26T06:32:27.032Z,1019.16
2022-10-26T06:34:27.076Z,1019.24
2022-10-26T06:36:27.131Z,1019.22
2022-10-26T06:38:27.053Z,1019.28
2022-10-26T06:40:27.062Z,1019.28
2022-10-26T06:42:27.100Z,1019.28
2022-10-26T06:44:27.025Z,1019.36
2022-10-26T06:46:27.064Z,1019.37
2022-10-26T06:48:27.071Z,1019.36
2022-10-26T06:50:27.032Z,1019.36
2022-10-26T06:52:27.079Z,1019.35
2022-10-26T06:54:27.174Z,1019.39
2022-10-26T06:56:27.085Z,1019.44
2022-10-26T06:58:27.037Z,1019.44
2022-10-26T07:00:27.136Z,1019.48
2022-10-26T07:02:27.158Z,1019.43
2022-10-26T07:04:27.048Z,1019.41
2022-10-26T07:06:27.083Z,1019.50
2022-10-26T07:08:27.090Z,1019.50
2022-10-26T07:10:27.101Z,1019.68
2022-10-26T07:12:30.770Z,1019.74
2022-10-26T07:14:27.173Z,1019.82
2022-10-26T07:16:27.064Z,1019.85
2022-10-26T07:18:27.091Z,1019.85
2022-10-26T07:20:27.103Z,1019.97
2022-10-26T07:22:27.066Z,1019.97
2022-10-26T07:24:27.169Z,1020.20
2022-10-26T07:26:27.117Z,1020.20
2022-10-26T07:28:27.066Z,1020.23
2022-10-26T07:30:27.089Z,1020.20
2022-10-26T07:32:27.060Z,1020.22
2022-10-26T07:34:27.091Z,1020.23
2022-10-26T07:36:27.106Z,1020.23
2022-10-26T07:38:27.169Z,1020.24
2022-10-26T07:40:27.196Z,1020.34
2022-10-26T07:42:27.128Z,1020.30
2022-10-26T07:44:27.102Z,1020.36
2022-10-26T07:46:27.076Z,1020.36
2022-10-26T07:48:27.100Z,1020.37
2022-10-26T07:50:27.103Z,1020.34
2022-10-26T07:52:27.083Z,1020.34
2022-10-26T07:54:27.079Z,1020.40
2022-10-26T07:56:27.090Z,1020.40
2022-10-26T07:58:27.138Z,1020.43
2022-10-26T08:00:27.200Z,1020.44
2022-10-26T08:02:27.087Z,1020.44
2022-10-26T08:04:27.077Z,1020.44
2022-10-26T08:06:27.085Z,1020.46
2022-10-26T08:08:27.181Z,1020.48
2022-10-26T08:10:57.139Z,1020.49
2022-10-26T08:12:57.105Z,1020.48
2022-10-26T08:14:57.141Z,1020.48
2022-10-26T08:16:57.122Z,1020.52
2022-10-26T08:18:57.225Z,1020.51
2022-10-26T08:21:01.896Z,1020.51
2022-10-26T08:22:57.140Z,1020.53
2022-10-26T08:24:57.120Z,1020.53
2022-10-26T08:26:57.124Z,1020.49
2022-10-26T08:28:57.117Z,1020.51
2022-10-26T08:30:57.098Z,1020.54
2022-10-26T08:32:57.126Z,1020.54
2022-10-26T08:34:57.109Z,1020.53
2022-10-26T08:36:57.159Z,1020.57
2022-10-26T08:38:57.190Z,1020.56
2022-10-26T08:40:57.187Z,1020.57
2022-10-26T08:42:57.141Z,1020.57
2022-10-26T08:44:57.147Z,1020.57
2022-10-26T08:46:57.120Z,1020.68
2022-10-26T08:48:57.146Z,1020.70
2022-10-26T08:50:57.132Z,1020.71
2022-10-26T08:52:57.128Z,1020.71
2022-10-26T08:54:57.153Z,1020.77
2022-10-26T08:56:57.133Z,1020.76
2022-10-26T08:58:57.166Z,1020.76
2022-10-26T09:00:57.154Z,1020.76
2022-10-26T09:02:57.145Z,1020.73
2022-10-26T09:04:57.180Z,1020.67
2022-10-26T09:06:57.182Z,1020.68
2022-10-26T09:08:57.130Z,1020.72
2022-10-26T09:10:57.152Z,1020.72
2022-10-26T09:12:57.141Z,1020.70
2022-10-26T09:14:57.181Z,1020.71
2022-10-26T09:16:57.187Z,1020.75
2022-10-26T09:18:58.958Z,1020.74
2022-10-26T09:20:57.146Z,1020.74
2022-10-26T09:22:57.182Z,1020.81
2022-10-26T09:24:57.175Z,1020.81
2022-10-26T09:26:57.263Z,1020.89
2022-10-26T09:28:57.163Z,1020.89
2022-10-26T09:30:57.198Z,1020.89
2022-10-26T09:32:57.204Z,1020.88
2022-10-26T09:34:57.153Z,1020.89
2022-10-26T09:36:57.177Z,1020.95
2022-10-26T09:38:57.197Z,1020.95
2022-10-26T09:40:57.168Z,1020.94
2022-10-26T09:42:57.167Z,1021.02
2022-10-26T09:44:57.152Z,1021.08
2022-10-26T09:46:57.158Z,1021.05
2022-10-26T09:48:57.329Z,1021.05
2022-10-26T09:51:01.868Z,1021.13
2022-10-26T09:52:57.189Z,1021.15
2022-10-26T09:54:57.161Z,1021.28
2022-10-26T09:56:57.191Z,1021.29
2022-10-26T09:58:57.264Z,1021.29
2022-10-26T10:00:57.188Z,1021.32
2022-10-26T10:02:57.227Z,1021.38
2022-10-26T10:05:49.778Z,1021.38
2022-10-26T10:07:27.205Z,1021.40
2022-10-26T10:09:28.282Z,1021.36
2022-10-26T10:11:27.216Z,1021.36
2022-10-26T10:13:27.213Z,1021.37
2022-10-26T10:15:27.221Z,1021.41
2022-10-26T10:17:27.242Z,1021.40
2022-10-26T10:19:27.243Z,1021.47
2022-10-26T10:21:27.190Z,1021.47
2022-10-26T10:23:27.204Z,1021.56
2022-10-26T10:25:27.227Z,1021.57
2022-10-26T10:27:27.194Z,1021.65
2022-10-26T10:29:27.206Z,1021.65
2022-10-26T10:31:30.495Z,1021.62
2022-10-26T10:33:27.254Z,1021.62
2022-10-26T10:35:27.264Z,1021.65
2022-10-26T10:37:27.184Z,1021.66
2022-10-26T10:39:27.269Z,1021.66
2022-10-26T10:41:27.229Z,1021.69
2022-10-26T10:43:27.202Z,1021.68
2022-10-26T10:45:27.276Z,1021.68
2022-10-26T10:47:27.292Z,1021.71
2022-10-26T10:49:27.355Z,1021.71
2022-10-26T10:51:27.256Z,1021.73
2022-10-26T10:53:27.229Z,1021.72
2022-10-26T10:55:27.258Z,1021.71
2022-10-26T10:57:27.249Z,1021.71
2022-10-26T10:59:27.214Z,1021.68
2022-10-26T11:01:27.383Z,1021.66
2022-10-26T11:03:27.204Z,1021.65
2022-10-26T11:05:27.742Z,1021.61
2022-10-26T11:07:27.303Z,1021.61
2022-10-26T11:09:27.474Z,1021.64
2022-10-26T11:11:27.280Z,1021.74
2022-10-26T11:13:27.260Z,1021.75
2022-10-26T11:15:27.281Z,1021.74
2022-10-26T11:17:27.286Z,1021.74
2022-10-26T11:19:27.262Z,1021.68
2022-10-26T11:21:27.335Z,1021.68
2022-10-26T11:23:27.270Z,1021.64
2022-10-26T11:25:27.261Z,1021.64
2022-10-26T11:27:27.238Z,1021.64
2022-10-26T11:29:27.257Z,1021.68
2022-10-26T11:31:27.253Z,1021.68
2022-10-26T11:33:27.272Z,1021.83
2022-10-26T11:35:27.280Z,1021.83
2022-10-26T11:37:27.323Z,1021.82
2022-10-26T11:39:27.243Z,1021.80
2022-10-26T11:41:27.336Z,1021.81
2022-10-26T11:43:27.244Z,1021.78
2022-10-26T11:45:27.286Z,1021.78
2022-10-26T11:47:27.358Z,1021.80
2022-10-26T11:49:27.277Z,1021.82
2022-10-26T11:51:27.397Z,1021.81
2022-10-26T11:53:27.250Z,1021.86
2022-10-26T11:55:27.362Z,1021.86
2022-10-26T11:57:27.329Z,1021.89
2022-10-26T11:59:29.319Z,1021.93
2022-10-26T12:01:27.455Z,1022.01
2022-10-26T12:03:57.408Z,1022.01
2022-10-26T12:05:57.425Z,1022.02
2022-10-26T12:07:57.380Z,1022.02
2022-10-26T12:09:57.386Z,1022.09
2022-10-26T12:11:57.344Z,1022.08
2022-10-26T12:13:57.544Z,1022.08
2022-10-26T12:16:03.470Z,1022.06
2022-10-26T12:17:57.462Z,1022.14
2022-10-26T12:19:57.459Z,1022.11
2022-10-26T12:23:52.980Z,1022.06
2022-10-26T12:25:52.979Z,1022.18
2022-10-26T12:27:53.046Z,1022.27
2022-10-26T12:29:53.022Z,1022.25
2022-10-26T12:31:53.065Z,1022.25
2022-10-26T12:33:52.986Z,1022.23
2022-10-26T12:35:52.992Z,1022.28
2022-10-26T12:37:53.465Z,1022.30
2022-10-26T12:39:53.113Z,1022.34
2022-10-26T12:41:53.071Z,1022.34
2022-10-26T12:43:52.988Z,1022.35
2022-10-26T12:45:53.149Z,1022.34
2022-10-26T12:47:53.061Z,1022.34
2022-10-26T12:49:53.010Z,1022.33
2022-10-26T12:51:53.139Z,1022.33
2022-10-26T12:53:53.140Z,1022.35
2022-10-26T12:55:53.008Z,1022.41
2022-10-26T12:57:53.060Z,1022.44
2022-10-26T12:59:53.054Z,1022.44
2022-10-26T13:01:53.042Z,1022.48
2022-10-26T13:03:53.017Z,1022.53
2022-10-26T13:05:53.022Z,1022.53
2022-10-26T13:07:53.137Z,1022.57
2022-10-26T13:09:53.022Z,1022.57
2022-10-26T13:11:53.035Z,1022.64
2022-10-26T13:13:53.074Z,1022.62
2022-10-26T13:15:53.091Z,1022.66
2022-10-26T13:17:53.034Z,1022.64
2022-10-26T13:19:53.041Z,1022.64
2022-10-26T13:21:53.500Z,1022.66
2022-10-26T13:23:53.020Z,1022.67
2022-10-26T13:27:53.243Z,1022.70
2022-10-26T13:29:53.050Z,1022.70
2022-10-26T13:31:53.339Z,1022.72
2022-10-26T13:33:53.084Z,1022.66
2022-10-26T13:35:53.091Z,1022.71
2022-10-26T13:37:53.523Z,1022.71
2022-10-26T13:39:53.082Z,1022.77
2022-10-26T13:41:53.152Z,1022.72
2022-10-26T13:43:53.047Z,1022.72
2022-10-26T13:46:23.049Z,1022.74
2022-10-26T13:48:23.255Z,1022.74
2022-10-26T13:50:23.075Z,1022.79
2022-10-26T13:52:23.051Z,1022.79
2022-10-26T13:54:23.052Z,1022.83
2022-10-26T13:56:23.091Z,1022.82
2022-10-26T13:58:23.086Z,1022.86
2022-10-26T14:00:23.062Z,1022.86
2022-10-26T14:02:23.506Z,1022.92
2022-10-26T14:04:23.125Z,1022.91
2022-10-26T14:06:23.104Z,1022.91
2022-10-26T14:08:23.157Z,1022.91
2022-10-26T14:10:23.106Z,1022.91
2022-10-26T14:12:23.056Z,1023.00
2022-10-26T14:14:23.082Z,1023.08
2022-10-26T14:16:23.082Z,1023.04
2022-10-26T14:18:23.101Z,1023.05
2022-10-26T14:20:23.076Z,1023.05
2022-10-26T14:22:23.395Z,1023.05
2022-10-26T14:24:35.764Z,1023.04
2022-10-26T14:26:23.082Z,1023.07
2022-10-26T14:28:23.119Z,1023.06
2022-10-26T14:30:23.392Z,1023.06
2022-10-26T14:32:23.086Z,1023.09
2022-10-26T14:34:23.128Z,1023.13
2022-10-26T14:36:23.094Z,1023.15
2022-10-26T14:38:23.095Z,1023.15
2022-10-26T14:40:23.104Z,1023.15
2022-10-26T14:42:23.128Z,1023.19
2022-10-26T14:44:23.102Z,1023.18
2022-10-26T14:46:23.084Z,1023.21
2022-10-26T14:48:23.259Z,1023.21
2022-10-26T14:50:23.168Z,1023.21
2022-10-26T14:52:24.115Z,1023.29
2022-10-26T14:54:23.194Z,1023.34
2022-10-26T14:56:23.112Z,1023.33
2022-10-26T14:58:26.688Z,1023.33
2022-10-26T15:00:23.245Z,1023.29
2022-10-26T15:02:23.262Z,1023.38
2022-10-26T15:04:23.142Z,1023.35
2022-10-26T15:06:23.108Z,1023.35
2022-10-26T15:08:33.619Z,1023.39
2022-10-26T15:10:23.187Z,1023.37
2022-10-26T15:12:23.153Z,1023.38
2022-10-26T15:14:23.112Z,1023.37
2022-10-26T15:16:23.115Z,1023.37
2022-10-26T15:18:23.257Z,1023.40
2022-10-26T15:20:23.285Z,1023.42
2022-10-26T15:22:23.158Z,1023.47
2022-10-26T15:24:23.201Z,1023.47
2022-10-26T15:26:23.121Z,1023.47
2022-10-26T15:28:23.202Z,1023.52
2022-10-26T15:30:23.191Z,1023.52
2022-10-26T15:32:23.128Z,1023.51
2022-10-26T15:34:23.150Z,1023.51
2022-10-26T15:36:23.324Z,1023.54
2022-10-26T15:38:23.664Z,1023.58
2022-10-26T15:40:23.293Z,1023.59
2022-10-26T15:42:23.501Z,1023.63
2022-10-26T15:44:23.562Z,1023.63
2022-10-26T15:46:53.678Z,1023.70
2022-10-26T15:48:56.295Z,1023.67
2022-10-26T15:50:56.231Z,1023.74
2022-10-26T15:52:53.772Z,1023.77
2022-10-26T15:54:53.197Z,1023.77
2022-10-26T15:56:53.201Z,1023.80
2022-10-26T15:58:53.351Z,1023.81
2022-10-26T16:00:53.283Z,1023.82
2022-10-26T16:02:53.313Z,1023.82
2022-10-26T16:04:53.275Z,1023.87
2022-10-26T16:06:53.300Z,1023.86
2022-10-26T16:08:53.179Z,1023.91
2022-10-26T16:10:53.265Z,1023.91
2022-10-26T16:12:53.262Z,1023.91
2022-10-26T16:15:05.139Z,1023.91
2022-10-26T16:16:53.270Z,1024.03
2022-10-26T16:19:06.056Z,1024.05
2022-10-26T16:20:53.228Z,1024.09
2022-10-26T16:22:53.500Z,1024.09
2022-10-26T16:24:53.274Z,1024.12
2022-10-26T16:26:53.260Z,1024.17
2022-10-26T16:28:53.287Z,1024.16
2022-10-26T16:30:53.276Z,1024.15
2022-10-26T16:32:54.620Z,1024.15
2022-10-26T16:34:53.286Z,1024.23
2022-10-26T16:36:53.217Z,1024.30
2022-10-26T16:38:53.389Z,1024.31
2022-10-26T16:40:53.475Z,1024.31
2022-10-26T16:42:53.328Z,1024.34
2022-10-26T16:44:53.734Z,1024.35
2022-10-26T16:46:53.306Z,1024.35
2022-10-26T16:48:53.273Z,1024.37
2022-10-26T16:50:53.309Z,1024.37
2022-10-26T16:52:53.351Z,1024.37
2022-10-26T16:54:53.383Z,1024.40
2022-10-26T16:56:53.450Z,1024.41
2022-10-26T16:58:53.255Z,1024.43
2022-10-26T17:00:53.323Z,1024.43
2022-10-26T17:02:53.330Z,1024.44
2022-10-26T17:04:53.285Z,1024.47
2022-10-26T17:06:53.200Z,1024.48
2022-10-26T17:08:53.370Z,1024.48
2022-10-26T17:10:53.282Z,1024.53
2022-10-26T17:12:53.497Z,1024.51
2022-10-26T17:14:53.302Z,1024.51
2022-10-26T17:16:53.293Z,1024.56
2022-10-26T17:18:53.301Z,1024.56
2022-10-26T17:20:53.318Z,1024.59
2022-10-26T17:22:53.334Z,1024.64
2022-10-26T17:24:53.356Z,1024.67
2022-10-26T17:26:53.348Z,1024.77
2022-10-26T17:28:53.273Z,1024.77
2022-10-26T17:30:53.369Z,1024.82
2022-10-26T17:32:53.566Z,1024.82
2022-10-26T17:34:53.324Z,1024.93
2022-10-26T17:36:53.334Z,1024.93
2022-10-26T17:38:53.389Z,1024.96
2022-10-26T17:40:53.257Z,1024.96
2022-10-26T17:42:53.300Z,1025.01
2022-10-26T17:44:53.995Z,1025.06
2022-10-26T17:47:23.340Z,1025.08
2022-10-26T17:49:25.100Z,1025.10
2022-10-26T17:51:23.327Z,1025.10
2022-10-26T17:53:23.350Z,1025.16
2022-10-26T17:55:23.391Z,1025.14
2022-10-26T17:57:23.274Z,1025.17
2022-10-26T17:59:23.252Z,1025.23
2022-10-26T18:01:23.493Z,1025.23
2022-10-26T18:03:23.318Z,1025.24
2022-10-26T18:05:23.327Z,1025.25
2022-10-26T18:07:23.307Z,1025.25
2022-10-26T18:09:23.457Z,1025.25
2022-10-26T18:11:26.738Z,1025.26
2022-10-26T18:13:23.320Z,1025.26
2022-10-26T18:15:23.285Z,1025.34
2022-10-26T18:17:23.314Z,1025.40
2022-10-26T18:19:23.364Z,1025.40
2022-10-26T18:21:23.386Z,1025.41
2022-10-26T18:23:23.287Z,1025.40
2022-10-26T18:25:23.404Z,1025.48
2022-10-26T18:27:23.392Z,1025.48
2022-10-26T18:29:23.284Z,1025.48
2022-10-26T18:31:23.394Z,1025.48
2022-10-26T18:33:23.348Z,1025.56
2022-10-26T18:35:23.383Z,1025.60
2022-10-26T18:37:23.449Z,1025.60
2022-10-26T18:39:23.419Z,1025.62
2022-10-26T18:41:23.495Z,1025.58
2022-10-26T18:43:23.375Z,1025.59
2022-10-26T18:45:23.474Z,1025.61
2022-10-26T18:47:23.452Z,1025.61
2022-10-26T18:49:23.388Z,1025.60
2022-10-26T18:51:23.471Z,1025.64
2022-10-26T18:53:23.499Z,1025.64
2022-10-26T18:55:23.400Z,1025.67
2022-10-26T18:57:23.381Z,1025.67
2022-10-26T18:59:23.325Z,1025.66
2022-10-26T19:01:23.516Z,1025.69
2022-10-26T19:03:23.393Z,1025.75
2022-10-26T19:05:23.400Z,1025.75
2022-10-26T19:07:23.393Z,1025.77
2022-10-26T19:09:23.494Z,1025.78
2022-10-26T19:11:23.388Z,1025.84
2022-10-26T19:13:23.319Z,1025.80
2022-10-26T19:15:23.380Z,1025.80
2022-10-26T19:17:23.374Z,1025.86
2022-10-26T19:19:23.322Z,1025.83
2022-10-26T19:21:23.543Z,1025.87
2022-10-26T19:23:23.323Z,1025.94
2022-10-26T19:25:23.349Z,1025.94
2022-10-26T19:27:23.444Z,1025.94
2022-10-26T19:29:23.317Z,1025.93
2022-10-26T19:31:26.953Z,1025.93
2022-10-26T19:33:36.008Z,1025.93
2022-10-26T19:37:36.115Z,1026.00
2022-10-26T19:39:36.176Z,1026.00
2022-10-26T19:41:36.037Z,1026.00
2022-10-26T19:43:36.029Z,1026.00
2022-10-26T19:45:36.037Z,1026.03
2022-10-26T19:47:36.098Z,1026.04
2022-10-26T19:49:36.058Z,1026.03
2022-10-26T19:51:36.118Z,1026.01
2022-10-26T19:53:36.146Z,1026.01
2022-10-26T19:55:36.167Z,1026.06
2022-10-26T19:57:36.038Z,1026.07
2022-10-26T19:59:36.366Z,1026.11
2022-10-26T20:01:36.105Z,1026.08
2022-10-26T20:03:36.114Z,1026.08
2022-10-26T20:05:36.086Z,1026.09
2022-10-26T20:07:36.071Z,1026.09
2022-10-26T20:09:36.091Z,1026.11
2022-10-26T20:11:36.140Z,1026.11
2022-10-26T20:13:36.037Z,1026.11
2022-10-26T20:15:36.000Z,1026.11
2022-10-26T20:17:36.096Z,1026.11
2022-10-26T20:19:36.026Z,1026.16
2022-10-26T20:21:36.026Z,1026.16
2022-10-26T20:23:36.029Z,1026.20
2022-10-26T20:25:36.058Z,1026.22
2022-10-26T20:27:36.068Z,1026.23
2022-10-26T20:29:36.189Z,1026.21
2022-10-26T20:31:36.037Z,1026.21
2022-10-26T20:33:36.121Z,1026.26
2022-10-26T20:36:06.065Z,1026.28
2022-10-26T20:38:06.121Z,1026.30
2022-10-26T20:40:06.067Z,1026.33
2022-10-26T20:42:06.036Z,1026.36
2022-10-26T20:44:06.090Z,1026.36
2022-10-26T20:46:06.110Z,1026.33
2022-10-26T20:48:06.082Z,1026.31
2022-10-26T20:50:06.198Z,1026.33
2022-10-26T20:52:20.692Z,1026.33
2022-10-26T20:54:06.163Z,1026.33
2022-10-26T20:56:06.224Z,1026.33
2022-10-26T20:58:06.100Z,1026.37
2022-10-26T21:00:06.104Z,1026.41
2022-10-26T21:02:06.111Z,1026.42
2022-10-26T21:04:06.095Z,1026.42
2022-10-26T21:06:06.419Z,1026.45
2022-10-26T21:08:06.064Z,1026.46
2022-10-26T21:10:06.173Z,1026.48
2022-10-26T21:12:06.076Z,1026.48
2022-10-26T21:14:06.111Z,1026.51
2022-10-26T21:16:06.075Z,1026.49
2022-10-26T21:18:06.070Z,1026.47
2022-10-26T21:20:06.067Z,1026.50
2022-10-26T21:22:06.056Z,1026.50
2022-10-26T21:24:06.064Z,1026.54
2022-10-26T21:26:06.083Z,1026.51
2022-10-26T21:28:06.068Z,1026.48
2022-10-26T21:30:06.088Z,1026.55
2022-10-26T21:32:06.116Z,1026.55
2022-10-26T21:34:06.070Z,1026.53
2022-10-26T21:36:06.155Z,1026.53
2022-10-26T21:38:06.156Z,1026.53
2022-10-26T21:40:06.114Z,1026.53
2022-10-26T21:42:06.081Z,1026.56
2022-10-26T21:44:09.271Z,1026.57
2022-10-26T21:46:06.113Z,1026.57
2022-10-26T21:48:06.113Z,1026.54
2022-10-26T21:50:06.328Z,1026.54
2022-10-26T21:52:06.091Z,1026.59
2022-10-26T21:54:06.181Z,1026.59
2022-10-26T21:56:06.142Z,1026.59
2022-10-26T21:58:06.210Z,1026.61
2022-10-26T22:00:06.147Z,1026.61
2022-10-26T22:02:06.259Z,1026.60
2022-10-26T22:04:06.079Z,1026.60
2022-10-26T22:06:06.253Z,1026.57
2022-10-26T22:08:06.235Z,1026.57
2022-10-26T22:10:11.674Z,1026.57
2022-10-26T22:12:06.236Z,1026.58
2022-10-26T22:14:06.124Z,1026.62
2022-10-26T22:16:06.252Z,1026.62
2022-10-26T22:18:06.183Z,1026.62
2022-10-26T22:20:06.100Z,1026.64
2022-10-26T22:22:06.143Z,1026.63
2022-10-26T22:24:06.260Z,1026.65
2022-10-26T22:26:06.102Z,1026.66
2022-10-26T22:28:06.209Z,1026.66
2022-10-26T22:30:06.134Z,1026.62
2022-10-26T22:32:36.124Z,1026.61
2022-10-26T22:34:36.167Z,1026.59
2022-10-26T22:36:36.167Z,1026.60
2022-10-26T22:38:36.593Z,1026.60
2022-10-26T22:40:36.141Z,1026.60
2022-10-26T22:42:36.158Z,1026.60
2022-10-26T22:44:36.113Z,1026.61
2022-10-26T22:46:36.135Z,1026.61
2022-10-26T22:48:36.268Z,1026.56
2022-10-26T22:50:36.394Z,1026.54
2022-10-26T22:52:36.168Z,1026.59
2022-10-26T22:54:36.133Z,1026.59
2022-10-26T22:58:36.129Z,1026.59
2022-10-26T23:00:36.155Z,1026.60
2022-10-26T23:02:36.177Z,1026.66
2022-10-26T23:04:36.258Z,1026.66
2022-10-26T23:06:36.137Z,1026.66
2022-10-26T23:08:36.200Z,1026.68
2022-10-26T23:10:36.130Z,1026.67
2022-10-26T23:12:36.166Z,1026.65
2022-10-26T23:14:36.125Z,1026.65
2022-10-26T23:16:36.182Z,1026.63
2022-10-26T23:18:36.155Z,1026.67
2022-10-26T23:20:36.148Z,1026.69
2022-10-26T23:22:36.197Z,1026.68
2022-10-26T23:24:36.185Z,1026.68
2022-10-26T23:26:36.141Z,1026.69
2022-10-26T23:28:36.276Z,1026.69
2022-10-26T23:30:36.212Z,1026.69
2022-10-26T23:32:36.190Z,1026.71
2022-10-26T23:34:36.168Z,1026.71
2022-10-26T23:36:36.196Z,1026.76
2022-10-26T23:38:36.179Z,1026.76
2022-10-26T23:40:36.180Z,1026.74
2022-10-26T23:42:36.250Z,1026.74
2022-10-26T23:44:36.158Z,1026.73
2022-10-26T23:46:36.153Z,1026.70
2022-10-26T23:48:36.175Z,1026.68
2022-10-26T23:50:36.189Z,1026.72
2022-10-26T23:52:36.170Z,1026.72
2022-10-26T23:54:36.223Z,1026.68
2022-10-26T23:56:36.221Z,1026.68
2022-10-26T23:58:36.157Z,1026.67
